Western Lake Ontario: Past 24 Hour Conditions

 

Gore Bay-Manitoulin Airport

03:00 AM EDT 26 October 2014
This table is a summary of hourly weather conditions for the past 24 hours.
Date / Time
(EDT)
Wind(knots) Conditions Visibility(km) Pressure(kPa) Air tempC) Relative humidity(%) Dew pointC)
26 October 2014
3:00 NW 14 gust 21 Cloudy 16 100.5 9 66 3
2:00 WNW 16 gust 24 Mostly Cloudy 16 100.4 9 65 3
1:00 NW 16 gust 22 Mainly Clear 16 100.3 9 66 3
0:00 WNW 15 gust 23 Mostly Cloudy 16 100.3 9 67 4
25 October 2014
23:00 WNW 19 gust 27 Mainly Clear 16 100.3 10 64 3
22:00 WNW 18 gust 26 Partly Cloudy 16 100.3 10 67 4
21:00 WNW 22 gust 31 Cloudy 16 100.3 11 62 4
20:00 WNW 17 gust 27 Cloudy 16 100.4 11 65 4
19:00 WNW 16 gust 25 Cloudy 16 100.4 10 66 4
18:00 NW 16 gust 32 Cloudy 16 100.3 11 61 3
17:00 WNW 21 gust 37 Cloudy 16 100.3 11 60 3
16:00 WNW 26 gust 38 Sunny 16 100.2 12 60 5
15:00 WNW 24 gust 33 Sunny 16 100.1 13 55 5
14:00 WNW 26 gust 34 Sunny 16 100.1 14 53 5
13:00 WNW 24 gust 33 Sunny 16 100.1 14 57 6
12:00 WNW 16 gust 27 Sunny 16 100.2 15 62 7
11:00 WNW 17 gust 24 Sunny 16 100.2 14 68 8
10:00 W 13 gust 18 Sunny 13 100.2 12 89 10
9:00 W 11 gust 16 Cloudy 11 100.3 11 93 10
8:00 WSW 13 gust 18 Cloudy 15 100.3 11 93 10
7:00 WSW 11 gust 18 Cloudy 16 100.3 11 93 10
6:00 SW 10 gust 16 Light Rain 8 100.5 10 92 9
5:00 S 9 Cloudy 13 100.6 10 93 9
4:00 SSW 11 Mostly Cloudy 16 100.7 10 95 9
3:00 SSW 7 Mostly Cloudy 16 100.9 9 97 9
 
Map of Great Lakes - Lake Erie and Lake Ontario marine weather areas Egbert N Huron - 45003 W Erie - 45005 S Huron - 45008 Lake Ontario - 45012 Port Stanley - 45132 Prince Edward Point - 45135 Georgian Bay - 45137 Grimsby - 45139 Port Colborne - 45142 South Georgian Bay - 45143 Lake St Clair - 45147 South Lake Huron - 45149 Lake Simcoe - 45151 Lake Nipissing - 45152 North Channel - 45154 Ajax - 45159 Sault Ste. Marie Airport Greater Sudbury Airport North Bay Airport Gore Bay-Manitoulin Airport Great Duck Island Brockville Grenadier Island Kemptville Kingston Airport Collingwood Lagoon City Muskoka Airport Parry Sound Harbour Lake Simcoe Regional Airport Wiarton Airport Goderich Sarnia Chris Hadfield Airport Tobermory Harrow AAFC Port Weller St. Catharines Airport Southeast Shoal Vineland Station Welland-Pelham Windsor Airport Burlington Lift Bridge Cobourg Hamilton Munro Int'l Airport Oshawa Municipal Airport Point Petre Toronto City Centre Airport Toronto Pearson Int'l Airport CFB Trenton Peterborough Municipal Airport Killarney Western Islands CFB Borden Cove Island Long Point Port Colborne Erieau Point Pelee Toronto Buttonville Municipal Airport
Legend: buoyBuoy land stationLand Station » US Marine Weather